Carleton Place, Canada
Current Conditions -  °F | °C
As of 11:00 AM on Thursday 27 Nov 2014 (Local Time) from CYOW Reporting Station
Light Snow Light Snow  
Wind Chill: 18°   Ceiling: 2100
Heat Index: 27°   Visibility: 15mi
Dew Point: 18°   Wind: 8mph
Humidity: 69%   Direction: 350°N
Pressure: 30.06"   Gusts: NA
Location:  45.13°N, 76.13°W
Report Text: CYOW 271600Z 35007KT 15SM -SN OVC021 M03/M08 A3006 RMK SC8 VRY LGT SN SLP185
Loading
Personal Weather Stations






























Interactive Weather Map New forecast layout! Learn more

10-Day Weather Forecast

Advertisements
Track Severe Weather on mobile